createdAt,value
2023-05-07T11:41:44.032Z,10.70
2023-05-07T12:30:13.316Z,10.90
2023-05-07T12:37:56.419Z,10.90
2023-05-07T12:39:01.632Z,13.60
2023-05-07T12:40:11.541Z,10.80
2023-05-07T12:41:17.581Z,10.80
2023-05-07T12:42:24.970Z,10.70
2023-05-07T12:43:30.576Z,10.60
2023-05-07T12:44:36.579Z,10.60
2023-05-07T12:45:40.984Z,10.70
2023-05-07T12:46:44.819Z,10.70
2023-05-07T12:47:47.567Z,8.30
2023-05-07T12:48:51.412Z,9.20
2023-05-07T12:49:55.472Z,10.80
2023-05-07T12:52:07.351Z,10.80
2023-05-07T12:54:32.636Z,10.80
2023-05-07T12:55:45.609Z,10.90
2023-05-07T12:56:49.057Z,11.00
2023-05-07T12:57:55.234Z,11.00
2023-05-07T12:59:00.327Z,11.00
2023-05-07T13:00:03.217Z,11.00
2023-05-07T13:01:08.534Z,11.30
2023-05-07T13:04:29.697Z,11.80
2023-05-07T13:05:34.219Z,11.90
2023-05-07T13:06:40.565Z,12.00
2023-05-07T13:07:54.901Z,12.00
2023-05-07T13:10:02.964Z,12.00
2023-05-07T13:11:07.221Z,11.90
2023-05-07T13:12:09.519Z,11.80
2023-05-07T13:14:22.058Z,11.60
2023-05-07T13:17:36.836Z,11.30
2023-05-07T13:20:57.303Z,11.20
2023-05-07T13:21:59.777Z,11.40
2023-05-07T13:25:13.777Z,15.00
2023-05-07T13:27:32.050Z,11.50
2023-05-07T13:28:35.778Z,11.40
2023-05-07T13:29:38.038Z,11.40
2023-05-07T13:30:49.849Z,11.30
2023-05-07T13:31:52.484Z,11.40
2023-05-07T13:34:03.312Z,11.30
2023-05-07T13:35:08.145Z,11.20
2023-05-07T13:38:23.035Z,11.20
2023-05-07T13:39:28.199Z,11.30
2023-05-07T13:40:30.993Z,14.50
2023-05-07T13:41:36.632Z,11.60
2023-05-07T13:42:38.981Z,11.70
2023-05-07T13:43:43.037Z,11.70
2023-05-07T13:44:45.448Z,11.80
2023-05-07T13:45:52.265Z,11.70
2023-05-07T13:46:57.383Z,11.70
2023-05-07T13:49:03.953Z,9.60
2023-05-07T13:56:39.221Z,11.90
2023-05-07T13:58:58.842Z,12.10
2023-05-07T14:00:06.432Z,12.20
2023-05-07T14:03:25.117Z,12.00
2023-05-07T14:05:35.660Z,12.00
2023-05-07T14:07:42.288Z,9.90
2023-05-07T14:08:45.003Z,12.10
2023-05-07T14:10:57.749Z,12.10
2023-05-07T14:14:13.200Z,12.40
2023-05-07T14:15:17.157Z,12.40
2023-05-07T14:16:21.049Z,12.40
2023-05-07T14:18:34.853Z,12.40
2023-05-07T14:19:38.740Z,8.30
2023-05-07T14:20:41.520Z,12.30
2023-05-07T14:21:45.515Z,12.40
2023-05-07T14:22:49.305Z,12.40
2023-05-07T14:23:52.163Z,12.40
2023-05-07T14:25:06.320Z,12.50
2023-05-07T14:26:11.909Z,10.30
2023-05-07T14:27:16.473Z,12.80
2023-05-07T14:28:20.093Z,12.80
2023-05-07T14:29:24.056Z,12.60
2023-05-07T14:31:31.264Z,12.70
2023-05-07T14:32:35.409Z,12.60
2023-05-07T14:34:44.114Z,12.60
2023-05-07T14:35:49.811Z,12.50
2023-05-07T14:36:53.491Z,12.50
2023-05-07T14:37:59.133Z,12.50
2023-05-07T14:39:02.123Z,12.50
2023-05-07T14:40:12.095Z,12.50
2023-05-07T14:41:16.749Z,12.30
2023-05-07T14:42:21.336Z,12.50
2023-05-07T14:43:24.286Z,12.30
2023-05-07T14:44:28.175Z,12.30
2023-05-07T14:45:32.794Z,11.40
2023-05-07T14:46:36.182Z,10.20
2023-05-07T14:47:38.915Z,10.20
2023-05-07T14:50:52.192Z,12.60
2023-05-07T14:52:59.891Z,12.80
2023-05-07T14:54:05.816Z,12.90
2023-05-07T14:55:10.809Z,16.10
2023-05-07T14:58:23.086Z,13.00
2023-05-07T14:59:26.465Z,13.10
2023-05-07T15:00:32.688Z,13.10
2023-05-07T15:02:40.269Z,13.00
2023-05-07T15:04:48.072Z,13.10
2023-05-07T15:05:55.048Z,13.10
2023-05-07T15:08:01.682Z,12.80
2023-05-07T15:10:10.929Z,12.50
2023-05-07T15:13:24.867Z,12.10
2023-05-07T15:14:28.785Z,12.20
2023-05-07T15:17:39.247Z,12.20
2023-05-07T15:18:43.441Z,12.20
2023-05-07T15:21:53.800Z,12.40
2023-05-07T15:25:05.692Z,12.60
2023-05-07T15:27:15.779Z,12.70
2023-05-07T15:39:13.799Z,12.90
2023-05-07T15:59:53.177Z,13.20
2023-05-07T16:26:50.909Z,12.90
2023-05-07T16:31:10.878Z,13.00
2023-05-07T16:32:13.232Z,12.90
2023-05-07T16:33:20.179Z,12.90
2023-05-07T16:35:27.517Z,12.90
2023-05-07T16:36:32.891Z,12.80
2023-05-07T16:39:48.213Z,12.80
2023-05-07T16:40:52.717Z,13.50
2023-05-07T16:43:04.049Z,12.70
2023-05-07T16:45:11.633Z,12.70
2023-05-07T16:47:18.933Z,12.60
2023-05-07T16:48:22.225Z,12.60
2023-05-07T16:49:24.760Z,12.60
2023-05-07T16:50:28.384Z,12.60
2023-05-07T16:51:32.196Z,12.50
2023-05-07T16:52:35.038Z,12.50
2023-05-07T16:54:41.355Z,12.60
2023-05-07T16:56:48.171Z,12.70
2023-05-07T16:57:53.138Z,10.60
2023-05-07T16:58:57.343Z,9.90
2023-05-07T17:00:00.679Z,12.60
2023-05-07T17:01:04.921Z,12.50
2023-05-07T17:02:07.708Z,12.40
2023-05-07T17:03:11.221Z,12.40
2023-05-07T17:04:16.940Z,12.30
2023-05-07T17:05:24.656Z,12.30
2023-05-07T17:06:26.972Z,12.20
2023-05-07T17:07:30.985Z,12.30
2023-05-07T17:08:34.522Z,12.30
2023-05-07T17:09:41.783Z,12.40
2023-05-07T17:10:48.525Z,12.40
2023-05-07T17:11:52.077Z,12.40
2023-05-07T17:13:05.145Z,12.40
2023-05-07T17:15:12.723Z,12.50
2023-05-07T17:16:18.539Z,12.40
2023-05-07T17:17:22.896Z,12.40
2023-05-07T17:18:25.614Z,12.30
2023-05-07T17:19:29.455Z,12.20
2023-05-07T17:20:32.404Z,15.90
2023-05-07T17:21:38.132Z,12.20
2023-05-07T17:24:50.098Z,12.10
2023-05-07T17:25:53.170Z,12.00
2023-05-07T17:26:58.969Z,12.00
2023-05-07T17:29:20.548Z,12.10
2023-05-07T17:30:25.772Z,12.10
2023-05-07T17:31:33.020Z,12.00
2023-05-07T17:32:38.988Z,9.20
2023-05-07T17:33:44.503Z,11.90
2023-05-07T17:34:48.095Z,12.00
2023-05-07T17:35:55.010Z,12.00
2023-05-07T17:36:59.024Z,12.00
2023-05-07T17:38:07.750Z,12.00
2023-05-07T17:39:14.086Z,13.00
2023-05-07T17:40:17.669Z,11.70
2023-05-07T17:41:22.920Z,11.70
2023-05-07T17:42:25.497Z,11.70
2023-05-07T17:43:30.839Z,11.60
2023-05-07T17:46:41.600Z,11.50
2023-05-07T17:47:50.129Z,11.40
2023-05-07T17:48:54.738Z,11.30
2023-05-07T17:49:57.280Z,11.40
2023-05-07T17:51:04.386Z,11.30
2023-05-07T17:52:07.375Z,11.30
2023-05-07T17:54:21.933Z,11.20
2023-05-07T17:56:33.924Z,11.20
2023-05-07T17:58:58.052Z,11.10
2023-05-07T18:00:03.988Z,11.00
2023-05-07T18:01:12.154Z,11.00
2023-05-07T18:02:18.796Z,11.00
2023-05-07T18:03:21.754Z,11.00
2023-05-07T18:04:27.007Z,11.00
2023-05-07T18:05:29.798Z,11.10
2023-05-07T18:06:35.015Z,11.10
2023-05-07T18:07:37.878Z,11.10
2023-05-07T18:08:42.583Z,11.00
2023-05-07T18:09:46.824Z,11.10
2023-05-07T18:10:50.543Z,11.70
2023-05-07T18:11:52.963Z,11.00
2023-05-07T18:12:57.108Z,11.00
2023-05-07T18:14:02.871Z,11.00
2023-05-07T18:15:08.106Z,11.00
2023-05-07T18:16:11.149Z,11.20
2023-05-07T18:17:15.479Z,10.90
2023-05-07T18:18:19.923Z,10.90
2023-05-07T18:19:22.972Z,10.80
2023-05-07T18:20:26.792Z,10.80
2023-05-07T18:21:29.649Z,10.80
2023-05-07T18:22:37.969Z,10.80
2023-05-07T18:24:50.193Z,10.60
2023-05-07T18:25:53.348Z,10.70
2023-05-07T18:26:57.202Z,10.60
2023-05-07T18:28:00.979Z,10.70
2023-05-07T18:29:05.252Z,12.80
2023-05-07T18:30:10.284Z,10.50
2023-05-07T18:31:13.484Z,9.60
2023-05-07T18:32:21.608Z,10.50
2023-05-07T18:33:24.560Z,10.50
2023-05-07T18:34:28.478Z,10.50
2023-05-07T18:35:32.328Z,10.50
2023-05-07T18:36:36.557Z,10.50
2023-05-07T18:37:39.678Z,10.40
2023-05-07T18:38:47.287Z,10.50
2023-05-07T18:39:50.332Z,10.50
2023-05-07T18:40:57.025Z,10.40
2023-05-07T18:43:07.403Z,10.40
2023-05-07T18:44:12.780Z,10.50
2023-05-07T18:46:20.099Z,10.50
2023-05-07T18:47:22.884Z,10.40
2023-05-07T18:48:27.134Z,10.50
2023-05-07T18:49:29.611Z,10.50
2023-05-07T18:50:33.362Z,10.40
2023-05-07T18:51:39.618Z,10.40
2023-05-07T18:52:42.719Z,10.40
2023-05-07T18:53:46.532Z,11.20
2023-05-07T18:56:57.580Z,10.30
2023-05-07T18:58:04.351Z,10.20
2023-05-07T18:59:08.388Z,10.20
2023-05-07T19:00:19.791Z,10.20
2023-05-07T19:01:23.839Z,10.20
2023-05-07T19:03:31.901Z,10.00
2023-05-07T19:04:36.376Z,10.20
2023-05-07T19:05:38.991Z,10.20
2023-05-07T19:06:42.688Z,10.10
2023-05-07T19:07:45.686Z,10.20
2023-05-07T19:08:49.712Z,10.10
2023-05-07T19:10:19.760Z,13.30
2023-05-07T19:12:22.771Z,10.00
2023-05-07T19:13:28.089Z,5.70
2023-05-07T19:14:32.165Z,10.00
2023-05-07T19:15:37.764Z,10.10
2023-05-07T19:16:43.418Z,10.00
2023-05-07T19:17:46.100Z,10.00
2023-05-07T19:18:53.310Z,10.00
2023-05-07T19:19:56.329Z,9.90
2023-05-07T19:21:00.156Z,9.90
2023-05-07T19:22:04.087Z,9.90
2023-05-07T19:23:09.714Z,8.00
2023-05-07T19:24:19.071Z,9.90
2023-05-07T19:25:22.577Z,9.80
2023-05-07T19:26:28.880Z,9.80
2023-05-07T19:27:32.850Z,9.70
2023-05-07T19:28:37.734Z,13.00
2023-05-07T19:29:42.949Z,13.20
2023-05-07T19:30:49.716Z,10.10
2023-05-07T19:31:53.834Z,10.50
2023-05-07T19:34:01.329Z,11.00
2023-05-07T19:35:08.827Z,11.20
2023-05-07T19:36:11.968Z,11.50
2023-05-07T19:37:17.873Z,11.40
2023-05-07T19:38:20.999Z,11.70
2023-05-07T19:39:27.553Z,11.80
2023-05-07T19:40:30.342Z,11.80
2023-05-07T19:41:36.091Z,11.70
2023-05-07T19:42:39.176Z,11.70
2023-05-07T19:43:45.009Z,11.80
2023-05-07T19:44:52.569Z,14.30
2023-05-07T19:46:00.379Z,11.80
2023-05-07T19:47:03.863Z,13.90
2023-05-07T19:48:10.094Z,16.00
2023-05-07T19:49:13.849Z,11.90
2023-05-07T19:50:22.538Z,11.80
2023-05-07T19:51:26.837Z,11.70
2023-05-07T19:52:29.541Z,11.60
2023-05-07T19:53:35.989Z,14.00
2023-05-07T19:54:38.809Z,11.50
2023-05-07T19:55:42.209Z,11.40
2023-05-07T19:56:47.690Z,7.00
2023-05-07T19:58:55.385Z,11.00
2023-05-07T19:59:58.308Z,10.90
2023-05-07T20:01:09.486Z,10.80
2023-05-07T20:02:13.221Z,10.60
2023-05-07T20:03:19.848Z,10.60
2023-05-07T20:04:24.944Z,10.50
2023-05-07T20:05:28.527Z,10.30
2023-05-07T20:07:37.892Z,10.20
2023-05-07T20:08:43.466Z,10.20
2023-05-07T20:09:46.016Z,9.90
2023-05-07T20:10:55.883Z,10.00
2023-05-07T20:12:00.046Z,9.90
2023-05-07T20:13:04.085Z,9.80
2023-05-07T20:14:07.107Z,9.90
2023-05-07T20:15:13.004Z,5.60
2023-05-07T20:17:24.654Z,9.80
2023-05-07T20:18:32.263Z,9.70
2023-05-07T20:20:39.155Z,9.60
2023-05-07T20:21:44.998Z,9.70
2023-05-07T20:22:48.072Z,6.60
2023-05-07T20:23:52.590Z,9.60
2023-05-07T20:24:59.056Z,9.60
2023-05-07T20:26:01.548Z,9.60
2023-05-07T20:27:05.927Z,9.60
2023-05-07T20:28:08.487Z,9.60
2023-05-07T20:29:12.433Z,9.50
2023-05-07T20:31:32.420Z,9.50
2023-05-07T20:32:38.957Z,9.50
2023-05-07T20:33:41.479Z,9.50
2023-05-07T20:36:54.523Z,9.30
2023-05-07T20:38:01.020Z,9.30
2023-05-07T20:39:04.861Z,9.40
2023-05-07T20:41:14.996Z,9.40
2023-05-07T20:42:17.957Z,9.20
2023-05-07T20:43:21.753Z,9.20
2023-05-07T20:44:24.547Z,7.60
2023-05-07T20:45:28.475Z,9.30
2023-05-07T20:47:44.025Z,9.20
2023-05-07T20:48:46.823Z,9.20
2023-05-07T20:49:55.009Z,9.20
2023-05-07T20:51:00.034Z,9.20
2023-05-07T20:52:04.453Z,9.20
2023-05-07T20:53:07.133Z,9.20
2023-05-07T20:54:11.402Z,9.20
2023-05-07T20:55:14.337Z,11.40
2023-05-07T20:56:19.386Z,9.10
2023-05-07T20:57:22.991Z,11.50
2023-05-07T20:58:29.386Z,9.20
2023-05-07T20:59:35.776Z,9.10
2023-05-07T21:00:40.344Z,13.10
2023-05-07T21:01:49.216Z,9.10
2023-05-07T21:02:53.564Z,12.60
2023-05-07T21:03:59.890Z,12.20
2023-05-07T21:05:03.309Z,9.10
2023-05-07T21:06:08.384Z,6.50
2023-05-07T21:07:11.723Z,9.50
2023-05-07T21:08:18.018Z,9.10
2023-05-07T21:09:21.004Z,9.10
2023-05-07T21:10:25.513Z,9.10
2023-05-07T21:11:31.113Z,8.90
2023-05-07T21:12:37.246Z,9.60
2023-05-07T21:13:41.434Z,6.80
2023-05-07T21:14:46.809Z,9.00
2023-05-07T21:15:50.926Z,12.70
2023-05-07T21:16:55.139Z,8.90
2023-05-07T21:17:59.574Z,8.90
2023-05-07T21:19:02.750Z,8.90
2023-05-07T21:21:11.157Z,11.40
2023-05-07T21:22:20.249Z,12.00
2023-05-07T21:24:30.280Z,8.80
2023-05-07T21:25:33.759Z,8.80
2023-05-07T21:26:38.204Z,8.80
2023-05-07T21:27:41.316Z,8.70
2023-05-07T21:28:46.295Z,8.80
2023-05-07T21:29:57.219Z,8.80
2023-05-07T21:31:01.547Z,8.80
2023-05-07T21:32:06.384Z,8.70
2023-05-07T21:33:12.892Z,8.70
2023-05-07T21:34:16.039Z,5.80
2023-05-07T21:35:20.210Z,8.70
2023-05-07T21:36:23.019Z,8.70
2023-05-07T21:37:28.613Z,8.70
2023-05-07T21:38:31.445Z,5.80
2023-05-07T21:39:36.218Z,8.60
2023-05-07T21:40:39.618Z,4.50
2023-05-07T21:41:43.328Z,8.60
2023-05-07T21:42:46.266Z,8.70
2023-05-07T21:43:51.763Z,8.60
2023-05-07T21:44:54.883Z,8.60
2023-05-07T21:46:00.186Z,8.70
2023-05-07T21:47:03.602Z,8.70
2023-05-07T21:48:09.114Z,8.60
2023-05-07T21:49:12.194Z,10.00
2023-05-07T21:50:16.515Z,8.60
2023-05-07T21:51:24.160Z,8.60
2023-05-07T21:52:27.962Z,8.60
2023-05-07T21:53:31.331Z,8.50
2023-05-07T21:54:35.045Z,8.50
2023-05-07T21:55:38.080Z,8.50
2023-05-07T21:56:47.207Z,8.50
2023-05-07T21:58:04.209Z,8.50
2023-05-07T21:59:08.900Z,8.50
2023-05-07T22:00:17.212Z,8.50
2023-05-07T22:01:21.167Z,8.50
2023-05-07T22:02:26.005Z,9.60
2023-05-07T22:03:33.487Z,10.50
2023-05-07T22:04:36.757Z,8.40
2023-05-07T22:05:40.551Z,8.40
2023-05-07T22:06:50.633Z,8.40
2023-05-07T22:07:57.095Z,8.40
2023-05-07T22:09:00.121Z,8.40
2023-05-07T22:10:03.705Z,8.30
2023-05-07T22:11:07.698Z,8.40
2023-05-07T22:12:12.247Z,8.30
2023-05-07T22:13:15.262Z,8.30
2023-05-07T22:14:21.000Z,8.30
2023-05-07T22:15:24.663Z,8.20
2023-05-07T22:16:28.831Z,8.20
2023-05-07T22:17:33.098Z,8.20
2023-05-07T22:18:38.113Z,8.30
2023-05-07T22:19:44.885Z,8.20
2023-05-07T22:20:47.605Z,8.20
2023-05-07T22:21:51.629Z,8.20
2023-05-07T22:22:56.575Z,8.10
2023-05-07T22:24:02.715Z,8.10
2023-05-07T22:25:06.506Z,8.20
2023-05-07T22:26:13.200Z,8.20
2023-05-07T22:27:16.862Z,8.10
2023-05-07T22:28:22.170Z,8.50
2023-05-07T22:30:29.408Z,8.10
2023-05-07T22:31:33.278Z,8.10
2023-05-07T22:32:36.630Z,4.00
2023-05-07T22:33:42.046Z,8.00
2023-05-07T22:34:45.017Z,8.00
2023-05-07T22:35:49.033Z,8.70
2023-05-07T22:37:55.490Z,8.10
2023-05-07T22:38:58.379Z,8.00
2023-05-07T22:40:04.458Z,7.90
2023-05-07T22:41:07.183Z,8.00
2023-05-07T22:43:13.969Z,8.00
2023-05-07T22:44:22.044Z,8.50
2023-05-07T22:45:25.595Z,8.00
2023-05-07T22:46:29.294Z,8.00
2023-05-07T22:47:31.851Z,4.60
2023-05-07T22:48:38.001Z,8.00
2023-05-07T22:49:42.239Z,8.00
2023-05-07T22:50:46.278Z,8.00
2023-05-07T22:52:52.906Z,8.00
2023-05-07T22:53:56.749Z,8.00
2023-05-07T22:54:59.927Z,7.90
2023-05-07T22:56:07.777Z,7.90
2023-05-07T22:57:10.518Z,7.90
2023-05-07T22:58:14.308Z,7.90
2023-05-07T22:59:19.880Z,7.90
2023-05-07T23:00:24.329Z,7.90
2023-05-07T23:01:28.891Z,8.60
2023-05-07T23:02:32.921Z,7.90
2023-05-07T23:03:35.893Z,7.80
2023-05-07T23:04:43.540Z,7.90
2023-05-07T23:05:47.177Z,7.80
2023-05-07T23:06:51.415Z,7.80
2023-05-07T23:07:54.391Z,7.80
2023-05-07T23:09:00.163Z,7.80
2023-05-07T23:10:03.633Z,7.80
2023-05-07T23:11:08.867Z,7.70
2023-05-07T23:12:11.556Z,7.80
2023-05-07T23:14:22.520Z,7.80
2023-05-07T23:15:27.625Z,7.80
2023-05-07T23:16:30.373Z,8.90
2023-05-07T23:17:35.845Z,7.80
2023-05-07T23:19:44.766Z,6.70
2023-05-07T23:20:48.824Z,7.70
2023-05-07T23:21:51.844Z,7.70
2023-05-07T23:22:55.761Z,7.70
2023-05-07T23:23:58.400Z,7.70
2023-05-07T23:25:02.013Z,7.70
2023-05-07T23:26:05.035Z,9.40
2023-05-07T23:28:13.138Z,7.60
2023-05-07T23:29:16.807Z,11.20
2023-05-07T23:30:19.857Z,7.60
2023-05-07T23:31:24.539Z,9.60
2023-05-07T23:32:27.477Z,7.60
2023-05-07T23:33:31.951Z,7.60
2023-05-07T23:34:34.358Z,7.60
2023-05-07T23:35:40.490Z,7.60
2023-05-07T23:36:43.080Z,7.60
2023-05-07T23:37:47.594Z,7.60
2023-05-07T23:38:50.408Z,7.60
2023-05-07T23:39:57.426Z,7.60
2023-05-07T23:41:00.840Z,7.60
2023-05-07T23:42:04.696Z,7.60
2023-05-07T23:43:07.937Z,7.50
2023-05-07T23:44:11.612Z,9.90
2023-05-07T23:45:14.179Z,7.60
2023-05-07T23:46:20.897Z,7.50
2023-05-07T23:47:23.623Z,10.50
2023-05-07T23:48:27.625Z,8.10
2023-05-07T23:49:30.635Z,7.50
2023-05-07T23:50:39.691Z,7.50
2023-05-07T23:51:41.947Z,7.50
2023-05-07T23:52:45.856Z,7.50
2023-05-07T23:53:48.937Z,7.50
2023-05-07T23:54:52.633Z,7.40
2023-05-07T23:55:54.918Z,7.40
2023-05-07T23:57:01.813Z,7.40
2023-05-07T23:58:04.992Z,7.40
2023-05-07T23:59:09.140Z,7.30
